KSDFKAUM

Guest
Details From KSDF - Louisville Intl Standiford Fld
To KAUM - AUSTIN MUNI
Flight Number -
Tags decoded
Created
Modified
Stats Distance 487 nm / 902 km
Max Altitude 0 ft / 0 m
Waypoints 7
Social Downloads 1
Likes 0
Share VATSIM

Download

Looking for another format? Having issues loading an existing format? Contact us
Advertisement - Login to hide

Notes

Requested: KSDF DROPA DIIME ONMEE CANBE STREP KAUM

Route

KSDF DROPA DIIME ONMEE CANBE STREP KAUM

ID Type Via Altitude Latitude Longitude Leg Dist Tot Dist Heading (true) Name
O KSDF APT - 0 ft / 0 m 38.17505˚ -85.73569˚ - 0 nm - Louisville Intl Standiford Fld
DROPA FIX - 0 ft / 0 m 38.08400˚ -85.69611˚ 5 nm 5 nm 161° / 161° -
DIIME FIX - 0 ft / 0 m 38.06704˚ -85.77558˚ 3 nm 9 nm 255° / 255° -
ONMEE FIX - 0 ft / 0 m 38.07466˚ -85.90404˚ 6 nm 15 nm 274° / 274° -
CANBE FIX - 0 ft / 0 m 38.32053˚ -85.98924˚ 15 nm 31 nm 345° / 345° -
STREP FIX - 0 ft / 0 m 38.77300˚ -86.01370˚ 27 nm 58 nm 358° / 358° -
O KAUM APT - 0 ft / 0 m 43.66263˚ -92.93293˚ 428 nm 486 nm 315° / 311° AUSTIN MUNI

Altitude Profile

Advertisement - Login to hide

Weather


0- 5 10 15 20 25 30 35+ Temperature / ° C

Clouds and Precipitation
Forecast for 2017-12-18 00:00 UTC. Updated 18 minutes ago

Ground ~20,000 ft ~40,000 ft Winds

KSDF

Details ICAO KSDF (SDF)
Name Louisville Intl Standiford Fld
Region United States
Timezone America/New_York (UTC-5.0)
Stats Elevation 501 ft / 153 m (AMSL)
Location 38.175051° -85.735692°
Runways 3
Magnetic Variation 4.812° W

METAR

KSDF 171856Z 20010KT 10SM OVC048 08/02 A3013 RMK AO2 RAE32 SLP205 P0001 T00780022

Decode

TAF

KSDF 171721Z 1718/1824 20005KT P6SM VCSH OVC050 FM172100 18004KT P6SM OVC035 FM172300 18004KT P6SM OVC025 FM180200 17004KT 6SM -DZ BR OVC013 FM181900 23006KT P6SM OVC025

Decode

Departure Runways

ID Width Length Bearing (true) Bearing (mag) Surface Threshold Offset Overrun Length
11 150 ft / 46 m 7,238 ft / 2,206 m 111.19° 116.00° Concrete 0 ft / 0 m 0 ft / 0 m
17L 150 ft / 46 m 8,593 ft / 2,619 m 164.97° 169.78° Concrete 329 ft / 100 m 0 ft / 0 m
17R 150 ft / 46 m 10,869 ft / 3,313 m 165.44° 170.25° Concrete 850 ft / 259 m 0 ft / 0 m
29 150 ft / 46 m 7,238 ft / 2,206 m 291.20° 296.01° Concrete 0 ft / 0 m 0 ft / 0 m
35L 150 ft / 46 m 10,869 ft / 3,313 m 345.45° 350.26° Concrete 0 ft / 0 m 0 ft / 0 m
35R 150 ft / 46 m 8,593 ft / 2,619 m 344.98° 349.79° Concrete 450 ft / 137 m 0 ft / 0 m

KAUM

Details ICAO KAUM
Name AUSTIN MUNI
Region United States
Timezone America/Chicago (UTC-6.0)
Stats Elevation 1,233 ft / 376 m (AMSL)
Location 43.662633° -92.932931°
Runways 1
Magnetic Variation 0.079° E

METAR

KAUM 171935Z AUTO 00000KT 4SM BR OVC005 M02/M03 A2999 RMK AO2

Decode

TAF

Not found

Destination Runways

ID Width Length Bearing (true) Bearing (mag) Surface Threshold Offset Overrun Length
17 100 ft / 30 m 5,806 ft / 1,770 m 172.16° 172.08° Concrete 0 ft / 0 m 0 ft / 0 m
35 100 ft / 30 m 5,806 ft / 1,770 m 352.16° 352.08° Concrete 0 ft / 0 m 0 ft / 0 m